Home   Weather   Fairfield   Past weeks
Flag for USA

Past Weather in Fairfield, Minnesota, USA — Yesterday and Last 2 Weeks

Currently: 59 °F. Clear. (Weather station: Fergus Falls Weather Reporting System, USA). See more current weather

Past Weather in Fairfield — Graph

°F

Fairfield Temperature Yesterday

Maximum temperature yesterday: 77 °F (at 3:35 pm)
Minimum temperature yesterday: 52 °F (at 5:15 am)
Average temperature yesterday: 66 °F

High & Low Weather Summary for the Past Weeks

 TemperatureHumidityPressure
High91 °F (Jul 23, 3:55 pm)100% (Jul 20, 2:55 am)30.24 "Hg (Jul 20, 2:55 am)
Low52 °F (Aug 1, 5:15 am)31% (Jul 25, 2:35 pm)29.72 "Hg (Jul 24, 12:35 am)
Average75 °F67%30.00 "Hg
* Reported Jul 18 2:15 am — Aug 2 2:15 am, Fairfield. Weather by CustomWeather, © 2021

Note: Actual official high and low records may vary slightly from our data, if they occured in-between our weather recording intervals... More about our weather records

Fairfield Weather History for the Previous 24 Hours

Scroll right to see more
 ConditionsComfort  
Time TempWeatherWind HumidityBarometerVisibility
2:15 am
Mon, Aug 2
55 °FClear.No wind88%30.15 "Hg10 mi
1:55 am57 °FClear.No wind88%30.15 "Hg10 mi
1:15 am59 °FClear.No wind82%30.15 "Hg10 mi
12:55 am61 °FClear.No wind77%30.15 "Hg10 mi
12:35 am61 °FClear.No wind77%30.15 "Hg10 mi
12:15 am63 °FClear.5 mph68%30.15 "Hg10 mi
11:55 pm
Sun, Aug 1
64 °FClear.3 mph68%30.15 "Hg10 mi
11:35 pm63 °FClear.3 mph73%30.16 "Hg10 mi
11:15 pm63 °FClear.3 mph73%30.16 "Hg10 mi
10:55 pm64 °FClear.No wind68%30.16 "Hg10 mi
10:35 pm64 °FClear.No wind68%30.16 "Hg10 mi
9:55 pm66 °FClear.5 mph64%30.16 "Hg10 mi
9:35 pm66 °FClear.5 mph64%30.16 "Hg10 mi
9:15 pm68 °FClear.3 mph64%30.16 "Hg10 mi
8:55 pm70 °FClear.No wind60%30.15 "Hg7 mi
8:35 pm70 °FSunny.No wind60%30.15 "Hg7 mi
6:35 pm77 °FSunny.5 mph36%30.16 "Hg10 mi
6:15 pm77 °FSunny.3 mph36%30.17 "Hg10 mi
5:55 pm77 °FSunny.3 mph34%30.17 "Hg10 mi
5:35 pm77 °FSunny.3 mph34%30.18 "Hg10 mi
5:15 pm77 °FSunny.5 mph34%30.18 "Hg10 mi
4:55 pm77 °FSunny.3 mph34%30.19 "Hg7 mi
4:35 pm77 °FSunny.5 mph36%30.19 "Hg7 mi
4:15 pm77 °FSunny.5 mph34%30.19 "Hg7 mi
3:55 pm77 °FSunny.6 mph34%30.19 "Hg5 mi
3:35 pm77 °FSunny.3 mph36%30.20 "Hg5 mi
3:15 pm75 °FSunny.5 mph39%30.20 "Hg5 mi
2:35 pm75 °FScattered clouds.5 mph44%30.20 "Hg7 mi
2:15 pm75 °FScattered clouds.8 mph47%30.20 "Hg7 mi
1:55 pm75 °FScattered clouds.7 mph47%30.21 "Hg7 mi
1:35 pm75 °FSunny.8 mph47%30.21 "Hg7 mi
1:15 pm75 °FSunny.9 mph47%30.21 "Hg5 mi
12:55 pm73 °FSunny.10 mph50%30.22 "Hg7 mi
12:35 pm73 °FSunny.8 mph50%30.22 "Hg7 mi
12:15 pm73 °FSunny.8 mph50%30.23 "Hg7 mi
11:55 am72 °FSunny.9 mph57%30.23 "Hg10 mi
11:35 am72 °FSunny.6 mph57%30.24 "Hg10 mi
11:15 am72 °FSunny.7 mph57%30.23 "Hg7 mi
10:55 am70 °FSunny.8 mph60%30.23 "Hg10 mi
10:35 am70 °FSunny.5 mph60%30.23 "Hg10 mi
10:15 am70 °FSunny.No wind57%30.22 "Hg10 mi
9:55 am68 °FSunny.No wind60%30.22 "Hg7 mi
9:35 am66 °FSunny.No wind64%30.22 "Hg10 mi
9:15 am66 °FSunny.No wind64%30.22 "Hg10 mi
8:55 am63 °FSunny.3 mph73%30.22 "Hg10 mi
8:35 am61 °FSunny.No wind72%30.21 "Hg10 mi
8:15 am59 °FSunny.No wind77%30.21 "Hg10 mi
7:55 am55 °FSunny.No wind82%30.21 "Hg10 mi
7:35 am55 °FSunny.No wind82%30.21 "Hg10 mi
7:15 am55 °FSunny.3 mph77%30.21 "Hg10 mi
6:55 am54 °FSunny.No wind77%30.20 "Hg10 mi
6:35 am52 °FSunny.No wind82%30.19 "Hg10 mi
6:15 am54 °FSunny.3 mph77%30.19 "Hg10 mi
5:55 am54 °FClear.3 mph77%30.18 "Hg10 mi
5:35 am54 °FClear.5 mph77%30.18 "Hg10 mi
5:15 am52 °FClear.3 mph82%30.17 "Hg10 mi
4:55 am54 °FClear.5 mph77%30.17 "Hg10 mi
4:35 am54 °FClear.No wind77%30.17 "Hg10 mi
4:15 am54 °FClear.No wind77%30.16 "Hg10 mi
3:55 am54 °FClear.6 mph77%30.16 "Hg10 mi
3:35 am54 °FClear.7 mph77%30.16 "Hg10 mi
3:15 am55 °FClear.7 mph72%30.16 "Hg10 mi
Weather by CustomWeather, © 2021

See weather overview